Snelling, South Carolina
Current Conditions -  °F | °C
As of 1:35 PM on Friday 28 Nov 2014 (Local Time) from KBNL Reporting Station
Clear Clear  
Wind Chill: 46°   Ceiling: Unl
Heat Index: 46°   Visibility: NA
Dew Point: 27°   Wind: 0mph
Humidity: 46%   Direction: NA
Pressure: 30.34"   Gusts: NA
Location:  33.2109°N, 81.3471°W
Report Text: KBNL 281835Z AUTO 00000KT CLR 08/M03 A3034 RMK AO2
Loading
Personal Weather Stations






























Interactive Weather Map New forecast layout! Learn more

10-Day Weather Forecast

Advertisements
Track Severe Weather on mobile